Terminal Aerodrome Forecast
Issued by NWS

Home | Current Version | Previous Version | Graphics & Text | Print | Product List | Glossary On
Versions: 1 2 3 4 5 6 7 8 9 10 11 12 13 14 15 16 17 18 19 20 21
000
FTUS43 KABR 271740
TAFATY
TAF
KATY 271740Z 2718/2818 30008KT P6SM SCT070
     FM272200 18010KT P6SM SCT080
     FM281000 19011KT P6SM -SHRA VCTS SCT050CB BKN080
     FM281600 20014KT P6SM SCT100 BKN200=

USA.gov is the U.S. government's official web portal to all federal, state and local government web resources and services.